Richmond, CA (94801)

12:06 AM PDT on September 03, 2014 (GMT -0700)
Central Richmond | Change Station
CLOSE
Current Station
Personal Weather Station
Location: Richmond, CA
Elevation: 69 ft
Nearby Weather Stations

Elev 69 ft 37.93 °N, 122.35 °W | Updated 27 seconds ago

Mostly Cloudy
Mostly Cloudy
59.4 °F
Feels Like 59.4 °F
N
8.0
Wind Variable Wind from SW
Gusts 15.0 mph

Today
High -- | Low -- °F
--% Chance of Precip.
Yesterday
High -- | Low -- °F
Precip. -- in
6:41 AM 7:35 PM
First Quarter, 59% visible
Pressure 29.79 in
Visibility 10.0 miles
Clouds Overcast 1200 ft
Dew Point 57 °F
Humidity 92%
Rainfall 0.00 in
Snow Depth Not available.
UV 0 out of 12
Pollen 7.30 out of 12
PM2.5 Good
Flu Activity Not available.
METAR KOAK 030653Z 31004KT 10SM OVC012 17/13 A2979 RMK AO2 SLP088 T01720133

More Conditions Fewer Conditions

Pressure 29.79 in
Visibility 10.0 miles
Clouds Overcast 1200 ft
Dew Point 57 °F
Humidity 92%
Rainfall 0.00 in
Snow Depth Not available.
UV 0 out of 12
Pollen 7.30 out of 12
PM2.5 Good
Flu Activity Not available.
METAR KOAK 030653Z 31004KT 10SM OVC012 17/13 A2979 RMK AO2 SLP088 T01720133

More Conditions Fewer Conditions

10-Day Weather Forecast

Almanac

Astronomy

Sep. 03, 2014 Rise Set
Actual Time 6:41 AM PDT 7:35 PM PDT
Civil Twilight 6:14 AM PDT 8:02 PM PDT
Nautical Twilight 5:42 AM PDT 8:34 PM PDT
Astronomical Twilight 5:09 AM PDT 9:07 PM PDT
Moon 3:19 PM PDT 12:43 AM PDT
Length of Visible Light 13h 48m
Length of Day
12h 54m
Tomorrow will be 2m 21s shorter.
First Quarter, 59% of the Moon is Illuminated
Today
First Quarter
Sep 8
Full
Sep 15
Last Quarter
Sep 24
New
Oct 1
First Quarter

Community

WunderPhotos

Upload Photos

1,749,888 photos uploaded!

Nearby

Air Quality

  Air Quality AQ Index Pollutant
Yesterday Moderate
PM2.5
Yesterday Good
OZONE
Current Good
PM2.5
Tuesday Good
PM2.5
Wednesday Good
PM2.5
Thursday Good
PM2.5
Friday Good
PM2.5
Saturday Good
PM2.5
Sunday Good
PM2.5

Snow Depth

Station Depth Elevation
Echo Peak 0 in 7800 ft
Blue Lakes 0 in 8000 ft
Fallen Leaf 0 in 6300 ft
CSS Lab 3 in 6900 ft
Tahoe City Cross 0 in 6750 ft

Earthquake Activity

City Distance Mag. Time & Date
Cobb, California 63 miles 2.5 12:00 PM PDT
2014-09-02
Yountville, California 28 miles 2.6 1:15 PM PDT
2014-09-01
Gilroy, California 83 miles 3.4 9:10 AM PDT
2014-09-01
Green Valley, California 23 miles 2.5 6:37 AM PDT
2014-08-31
Minimum magnitude displayed is 2.5.

Coastal Water Temperatures

Place Temperature
San Francisco, CA 64.0 °F
Richmond, CA 68.0 °F
Port Chicago, CA 71.1 °F

Nearby Weather Stations